sensor_id;sensor_type;location;lat;lon;timestamp;temperature;humidity
16491;DHT22;8356;51.214;3.270;2023-12-20T00:01:01;230.90;2252.80
16491;DHT22;8356;51.214;3.270;2023-12-20T00:03:27;256.10;2252.80
16491;DHT22;8356;51.214;3.270;2023-12-20T00:05:52;256.10;2252.80
16491;DHT22;8356;51.214;3.270;2023-12-20T00:08:18;256.00;2252.80
16491;DHT22;8356;51.214;3.270;2023-12-20T00:10:44;256.00;2252.80
16491;DHT22;8356;51.214;3.270;2023-12-20T00:13:10;256.00;2252.80
16491;DHT22;8356;51.214;3.270;2023-12-20T00:15:36;256.00;2252.80
16491;DHT22;8356;51.214;3.270;2023-12-20T00:18:02;256.00;2252.80
16491;DHT22;8356;51.214;3.270;2023-12-20T00:20:28;256.00;2252.80
16491;DHT22;8356;51.214;3.270;2023-12-20T00:22:56;256.10;2252.80
16491;DHT22;8356;51.214;3.270;2023-12-20T00:25:23;256.20;2252.80
16491;DHT22;8356;51.214;3.270;2023-12-20T00:27:49;256.20;2252.80
16491;DHT22;8356;51.214;3.270;2023-12-20T00:30:15;256.20;2252.80
16491;DHT22;8356;51.214;3.270;2023-12-20T00:32:40;256.20;2252.80
16491;DHT22;8356;51.214;3.270;2023-12-20T00:35:15;256.20;2252.80
16491;DHT22;8356;51.214;3.270;2023-12-20T00:37:41;256.20;2252.80
16491;DHT22;8356;51.214;3.270;2023-12-20T00:40:07;256.10;2252.80
16491;DHT22;8356;51.214;3.270;2023-12-20T00:42:33;256.10;2252.80
16491;DHT22;8356;51.214;3.270;2023-12-20T00:44:59;256.20;2252.80
16491;DHT22;8356;51.214;3.270;2023-12-20T00:47:25;231.30;2252.80
16491;DHT22;8356;51.214;3.270;2023-12-20T00:49:51;256.10;2252.80
16491;DHT22;8356;51.214;3.270;2023-12-20T00:52:17;256.10;2252.80
16491;DHT22;8356;51.214;3.270;2023-12-20T00:54:44;256.00;2252.80
16491;DHT22;8356;51.214;3.270;2023-12-20T00:57:09;256.10;2252.80
16491;DHT22;8356;51.214;3.270;2023-12-20T00:59:35;256.10;2252.80
16491;DHT22;8356;51.214;3.270;2023-12-20T01:02:01;256.20;2252.80
16491;DHT22;8356;51.214;3.270;2023-12-20T01:04:27;256.20;2252.80
16491;DHT22;8356;51.214;3.270;2023-12-20T01:06:52;256.20;2252.80
16491;DHT22;8356;51.214;3.270;2023-12-20T01:09:18;256.20;2252.80
16491;DHT22;8356;51.214;3.270;2023-12-20T01:11:44;256.20;2252.80
16491;DHT22;8356;51.214;3.270;2023-12-20T01:14:12;256.10;2252.80
16491;DHT22;8356;51.214;3.270;2023-12-20T01:16:37;256.10;2252.80
16491;DHT22;8356;51.214;3.270;2023-12-20T01:19:03;256.10;2252.80
16491;DHT22;8356;51.214;3.270;2023-12-20T01:21:29;256.20;2252.80
16491;DHT22;8356;51.214;3.270;2023-12-20T01:23:54;256.20;2252.80
16491;DHT22;8356;51.214;3.270;2023-12-20T01:26:20;256.20;2252.80
16491;DHT22;8356;51.214;3.270;2023-12-20T01:28:45;256.20;2252.80
16491;DHT22;8356;51.214;3.270;2023-12-20T01:31:11;256.20;2252.80
16491;DHT22;8356;51.214;3.270;2023-12-20T01:33:37;256.20;2252.80
16491;DHT22;8356;51.214;3.270;2023-12-20T01:36:03;256.20;2252.80
16491;DHT22;8356;51.214;3.270;2023-12-20T01:38:29;256.20;2252.80
16491;DHT22;8356;51.214;3.270;2023-12-20T01:40:54;256.20;2252.80
16491;DHT22;8356;51.214;3.270;2023-12-20T01:43:20;256.20;2252.80
16491;DHT22;8356;51.214;3.270;2023-12-20T01:45:47;256.20;2252.80
16491;DHT22;8356;51.214;3.270;2023-12-20T01:48:13;256.20;2252.80
16491;DHT22;8356;51.214;3.270;2023-12-20T01:50:40;256.20;2252.80
16491;DHT22;8356;51.214;3.270;2023-12-20T01:53:08;256.10;2252.80
16491;DHT22;8356;51.214;3.270;2023-12-20T01:55:35;256.10;2252.80
16491;DHT22;8356;51.214;3.270;2023-12-20T01:58:02;256.10;2252.80
16491;DHT22;8356;51.214;3.270;2023-12-20T02:00:29;231.20;2252.80
16491;DHT22;8356;51.214;3.270;2023-12-20T02:02:55;256.20;2252.80
16491;DHT22;8356;51.214;3.270;2023-12-20T02:05:21;256.10;2252.80
16491;DHT22;8356;51.214;3.270;2023-12-20T02:07:47;256.10;2252.80
16491;DHT22;8356;51.214;3.270;2023-12-20T02:10:13;256.00;2252.80
16491;DHT22;8356;51.214;3.270;2023-12-20T02:12:40;256.00;2252.80
16491;DHT22;8356;51.214;3.270;2023-12-20T02:15:06;256.10;2252.80
16491;DHT22;8356;51.214;3.270;2023-12-20T02:17:32;256.10;2252.80
16491;DHT22;8356;51.214;3.270;2023-12-20T02:19:59;256.20;2252.80
16491;DHT22;8356;51.214;3.270;2023-12-20T02:22:25;256.20;2252.80
16491;DHT22;8356;51.214;3.270;2023-12-20T02:24:51;256.20;2252.80
16491;DHT22;8356;51.214;3.270;2023-12-20T02:27:18;256.20;2252.80
16491;DHT22;8356;51.214;3.270;2023-12-20T02:29:46;256.20;2252.80
16491;DHT22;8356;51.214;3.270;2023-12-20T02:32:12;256.10;2252.80
16491;DHT22;8356;51.214;3.270;2023-12-20T02:34:38;256.10;2252.80
16491;DHT22;8356;51.214;3.270;2023-12-20T02:37:03;256.10;2252.80
16491;DHT22;8356;51.214;3.270;2023-12-20T02:39:30;256.10;2252.80
16491;DHT22;8356;51.214;3.270;2023-12-20T02:41:56;256.10;2252.80
16491;DHT22;8356;51.214;3.270;2023-12-20T02:44:21;256.10;2252.80
16491;DHT22;8356;51.214;3.270;2023-12-20T02:46:47;256.10;2252.80
16491;DHT22;8356;51.214;3.270;2023-12-20T02:49:13;256.10;2252.80
16491;DHT22;8356;51.214;3.270;2023-12-20T02:51:38;256.10;2252.80
16491;DHT22;8356;51.214;3.270;2023-12-20T02:54:04;256.00;2252.80
16491;DHT22;8356;51.214;3.270;2023-12-20T02:56:34;256.10;2252.80
16491;DHT22;8356;51.214;3.270;2023-12-20T02:58:59;231.30;2252.80
16491;DHT22;8356;51.214;3.270;2023-12-20T03:01:26;256.00;2252.80
16491;DHT22;8356;51.214;3.270;2023-12-20T03:03:51;256.00;2252.80
16491;DHT22;8356;51.214;3.270;2023-12-20T03:06:20;256.00;2252.80
16491;DHT22;8356;51.214;3.270;2023-12-20T03:08:46;256.00;2252.80
16491;DHT22;8356;51.214;3.270;2023-12-20T03:11:12;256.00;2252.80
16491;DHT22;8356;51.214;3.270;2023-12-20T03:13:37;256.00;2252.80
16491;DHT22;8356;51.214;3.270;2023-12-20T03:16:13;256.00;2252.80
16491;DHT22;8356;51.214;3.270;2023-12-20T03:18:39;256.00;2252.80
16491;DHT22;8356;51.214;3.270;2023-12-20T03:21:05;256.00;2252.80
16491;DHT22;8356;51.214;3.270;2023-12-20T03:23:31;256.10;2252.80
16491;DHT22;8356;51.214;3.270;2023-12-20T03:25:59;256.10;2252.80
16491;DHT22;8356;51.214;3.270;2023-12-20T03:28:26;256.10;2252.80
16491;DHT22;8356;51.214;3.270;2023-12-20T03:30:51;256.10;2252.80
16491;DHT22;8356;51.214;3.270;2023-12-20T03:33:17;256.20;2252.80
16491;DHT22;8356;51.214;3.270;2023-12-20T03:35:43;256.00;2252.80
16491;DHT22;8356;51.214;3.270;2023-12-20T03:38:08;256.00;2252.80
16491;DHT22;8356;51.214;3.270;2023-12-20T03:40:34;256.00;2252.80
16491;DHT22;8356;51.214;3.270;2023-12-20T03:43:00;256.00;2252.80
16491;DHT22;8356;51.214;3.270;2023-12-20T03:45:26;231.30;2252.80
16491;DHT22;8356;51.214;3.270;2023-12-20T03:47:52;231.30;2252.80
16491;DHT22;8356;51.214;3.270;2023-12-20T03:50:25;231.30;2252.80
16491;DHT22;8356;51.214;3.270;2023-12-20T03:52:51;231.30;2252.80
16491;DHT22;8356;51.214;3.270;2023-12-20T03:55:17;231.30;2252.80
16491;DHT22;8356;51.214;3.270;2023-12-20T03:57:42;256.00;2252.80
16491;DHT22;8356;51.214;3.270;2023-12-20T04:00:08;256.00;2252.80
16491;DHT22;8356;51.214;3.270;2023-12-20T04:02:41;256.00;2252.80
16491;DHT22;8356;51.214;3.270;2023-12-20T04:05:07;231.30;2252.80
16491;DHT22;8356;51.214;3.270;2023-12-20T04:07:33;231.30;2252.80
16491;DHT22;8356;51.214;3.270;2023-12-20T04:09:59;231.30;2252.80
16491;DHT22;8356;51.214;3.270;2023-12-20T04:12:25;231.30;2252.80
16491;DHT22;8356;51.214;3.270;2023-12-20T04:14:51;231.30;2252.80
16491;DHT22;8356;51.214;3.270;2023-12-20T04:17:17;256.00;2252.80
16491;DHT22;8356;51.214;3.270;2023-12-20T04:19:43;231.30;2252.80
16491;DHT22;8356;51.214;3.270;2023-12-20T04:22:09;231.30;2252.80
16491;DHT22;8356;51.214;3.270;2023-12-20T04:24:34;231.30;2252.80
16491;DHT22;8356;51.214;3.270;2023-12-20T04:27:01;231.30;2252.80
16491;DHT22;8356;51.214;3.270;2023-12-20T04:29:26;231.30;2252.80
16491;DHT22;8356;51.214;3.270;2023-12-20T04:31:52;231.20;2252.80
16491;DHT22;8356;51.214;3.270;2023-12-20T04:34:18;231.30;2252.80
16491;DHT22;8356;51.214;3.270;2023-12-20T04:36:43;231.20;2252.80
16491;DHT22;8356;51.214;3.270;2023-12-20T04:39:10;231.20;2252.80
16491;DHT22;8356;51.214;3.270;2023-12-20T04:41:35;231.20;2252.80
16491;DHT22;8356;51.214;3.270;2023-12-20T04:44:01;231.20;2252.80
16491;DHT22;8356;51.214;3.270;2023-12-20T04:46:27;231.20;2252.80
16491;DHT22;8356;51.214;3.270;2023-12-20T04:48:53;231.20;2252.80
16491;DHT22;8356;51.214;3.270;2023-12-20T04:51:18;231.20;2252.80
16491;DHT22;8356;51.214;3.270;2023-12-20T04:53:44;231.10;2252.80
16491;DHT22;8356;51.214;3.270;2023-12-20T04:56:10;231.20;2252.80
16491;DHT22;8356;51.214;3.270;2023-12-20T04:58:35;231.10;2252.80
16491;DHT22;8356;51.214;3.270;2023-12-20T05:01:01;231.10;2252.80
16491;DHT22;8356;51.214;3.270;2023-12-20T05:03:27;231.10;2252.80
16491;DHT22;8356;51.214;3.270;2023-12-20T05:05:52;231.20;2252.80
16491;DHT22;8356;51.214;3.270;2023-12-20T05:08:18;231.20;2252.80
16491;DHT22;8356;51.214;3.270;2023-12-20T05:10:44;231.20;2252.80
16491;DHT22;8356;51.214;3.270;2023-12-20T05:13:09;231.20;2252.80
16491;DHT22;8356;51.214;3.270;2023-12-20T05:15:35;231.20;2252.80
16491;DHT22;8356;51.214;3.270;2023-12-20T05:18:00;231.30;2252.80
16491;DHT22;8356;51.214;3.270;2023-12-20T05:20:26;231.30;2252.80
16491;DHT22;8356;51.214;3.270;2023-12-20T05:22:52;231.30;2252.80
16491;DHT22;8356;51.214;3.270;2023-12-20T05:25:17;231.30;2252.80
16491;DHT22;8356;51.214;3.270;2023-12-20T05:27:43;231.30;2252.80
16491;DHT22;8356;51.214;3.270;2023-12-20T05:30:09;231.30;2252.80
16491;DHT22;8356;51.214;3.270;2023-12-20T05:32:35;231.20;2252.80
16491;DHT22;8356;51.214;3.270;2023-12-20T05:35:00;231.20;2252.80
16491;DHT22;8356;51.214;3.270;2023-12-20T05:37:26;231.20;2252.80
16491;DHT22;8356;51.214;3.270;2023-12-20T05:39:51;231.20;2252.80
16491;DHT22;8356;51.214;3.270;2023-12-20T05:42:17;231.20;2252.80
16491;DHT22;8356;51.214;3.270;2023-12-20T05:44:42;231.20;2252.80
16491;DHT22;8356;51.214;3.270;2023-12-20T05:47:08;231.20;2252.80
16491;DHT22;8356;51.214;3.270;2023-12-20T05:49:34;231.20;2252.80
16491;DHT22;8356;51.214;3.270;2023-12-20T05:51:59;231.20;2252.80
16491;DHT22;8356;51.214;3.270;2023-12-20T05:54:25;231.20;2252.80
16491;DHT22;8356;51.214;3.270;2023-12-20T05:56:51;231.20;2252.80
16491;DHT22;8356;51.214;3.270;2023-12-20T05:59:16;231.10;2252.80
16491;DHT22;8356;51.214;3.270;2023-12-20T06:01:42;231.20;2252.80
16491;DHT22;8356;51.214;3.270;2023-12-20T06:04:07;231.10;2252.80
16491;DHT22;8356;51.214;3.270;2023-12-20T06:06:33;231.20;2252.80
16491;DHT22;8356;51.214;3.270;2023-12-20T06:08:59;231.20;2252.80
16491;DHT22;8356;51.214;3.270;2023-12-20T06:11:25;231.20;2252.80
16491;DHT22;8356;51.214;3.270;2023-12-20T06:13:51;231.20;2252.80
16491;DHT22;8356;51.214;3.270;2023-12-20T06:16:18;231.20;2252.80
16491;DHT22;8356;51.214;3.270;2023-12-20T06:18:44;231.20;2252.80
16491;DHT22;8356;51.214;3.270;2023-12-20T06:21:10;231.10;2252.80
16491;DHT22;8356;51.214;3.270;2023-12-20T06:23:38;231.10;2252.80
16491;DHT22;8356;51.214;3.270;2023-12-20T06:26:04;231.10;2252.80
16491;DHT22;8356;51.214;3.270;2023-12-20T06:28:30;231.10;2252.80
16491;DHT22;8356;51.214;3.270;2023-12-20T06:30:55;231.10;2252.80
16491;DHT22;8356;51.214;3.270;2023-12-20T06:33:22;231.10;2252.80
16491;DHT22;8356;51.214;3.270;2023-12-20T06:35:49;231.10;2252.80
16491;DHT22;8356;51.214;3.270;2023-12-20T06:38:14;231.00;2252.80
16491;DHT22;8356;51.214;3.270;2023-12-20T06:40:40;231.00;2252.80
16491;DHT22;8356;51.214;3.270;2023-12-20T06:43:06;231.00;2252.80
16491;DHT22;8356;51.214;3.270;2023-12-20T06:45:32;231.00;2252.80
16491;DHT22;8356;51.214;3.270;2023-12-20T06:47:58;231.10;2252.80
16491;DHT22;8356;51.214;3.270;2023-12-20T06:50:24;231.10;2252.80
16491;DHT22;8356;51.214;3.270;2023-12-20T06:52:49;231.10;2252.80
16491;DHT22;8356;51.214;3.270;2023-12-20T06:55:15;231.10;2252.80
16491;DHT22;8356;51.214;3.270;2023-12-20T06:57:42;231.10;2252.80
16491;DHT22;8356;51.214;3.270;2023-12-20T07:00:08;231.10;2252.80
16491;DHT22;8356;51.214;3.270;2023-12-20T07:02:36;231.10;2252.80
16491;DHT22;8356;51.214;3.270;2023-12-20T07:05:01;231.00;2252.80
16491;DHT22;8356;51.214;3.270;2023-12-20T07:07:27;231.10;2252.80
16491;DHT22;8356;51.214;3.270;2023-12-20T07:09:53;231.00;2252.80
16491;DHT22;8356;51.214;3.270;2023-12-20T07:12:19;231.10;2252.80
16491;DHT22;8356;51.214;3.270;2023-12-20T07:14:47;231.10;2252.80
16491;DHT22;8356;51.214;3.270;2023-12-20T07:17:13;231.10;2252.80
16491;DHT22;8356;51.214;3.270;2023-12-20T07:19:41;231.10;2252.80
16491;DHT22;8356;51.214;3.270;2023-12-20T07:22:07;231.10;2252.80
16491;DHT22;8356;51.214;3.270;2023-12-20T07:24:33;231.20;2252.80
16491;DHT22;8356;51.214;3.270;2023-12-20T07:27:02;231.20;2252.80
16491;DHT22;8356;51.214;3.270;2023-12-20T07:29:27;231.20;2252.80
16491;DHT22;8356;51.214;3.270;2023-12-20T07:31:53;231.20;2252.80
16491;DHT22;8356;51.214;3.270;2023-12-20T07:34:22;231.20;2252.80
16491;DHT22;8356;51.214;3.270;2023-12-20T07:36:48;231.20;2252.80
16491;DHT22;8356;51.214;3.270;2023-12-20T07:39:14;231.10;2252.80
16491;DHT22;8356;51.214;3.270;2023-12-20T07:41:40;231.10;2252.80
16491;DHT22;8356;51.214;3.270;2023-12-20T07:44:07;231.10;2252.80
16491;DHT22;8356;51.214;3.270;2023-12-20T07:46:33;231.20;2252.80
16491;DHT22;8356;51.214;3.270;2023-12-20T07:48:58;231.10;2252.80
16491;DHT22;8356;51.214;3.270;2023-12-20T07:51:24;231.10;2252.80
16491;DHT22;8356;51.214;3.270;2023-12-20T07:53:49;231.10;2252.80
16491;DHT22;8356;51.214;3.270;2023-12-20T07:56:17;231.10;2252.80
16491;DHT22;8356;51.214;3.270;2023-12-20T07:58:43;231.10;2252.80
16491;DHT22;8356;51.214;3.270;2023-12-20T08:01:09;231.10;2252.80
16491;DHT22;8356;51.214;3.270;2023-12-20T08:03:34;231.10;2252.80
16491;DHT22;8356;51.214;3.270;2023-12-20T08:06:00;231.10;2252.80
16491;DHT22;8356;51.214;3.270;2023-12-20T08:08:26;231.10;2252.80
16491;DHT22;8356;51.214;3.270;2023-12-20T08:10:51;231.10;2252.80
16491;DHT22;8356;51.214;3.270;2023-12-20T08:13:17;231.20;2252.80
16491;DHT22;8356;51.214;3.270;2023-12-20T08:15:42;231.20;2252.80
16491;DHT22;8356;51.214;3.270;2023-12-20T08:18:08;231.30;2252.80
16491;DHT22;8356;51.214;3.270;2023-12-20T08:20:35;256.00;2252.80
16491;DHT22;8356;51.214;3.270;2023-12-20T08:23:01;256.00;2252.80
16491;DHT22;8356;51.214;3.270;2023-12-20T08:25:27;256.10;2252.80
16491;DHT22;8356;51.214;3.270;2023-12-20T08:27:53;256.10;2252.80
16491;DHT22;8356;51.214;3.270;2023-12-20T08:30:18;256.20;2252.80
16491;DHT22;8356;51.214;3.270;2023-12-20T08:32:47;256.20;2252.80
16491;DHT22;8356;51.214;3.270;2023-12-20T08:35:13;256.30;2252.80
16491;DHT22;8356;51.214;3.270;2023-12-20T08:37:39;256.30;2252.80
16491;DHT22;8356;51.214;3.270;2023-12-20T08:40:05;256.30;2252.80
16491;DHT22;8356;51.214;3.270;2023-12-20T08:42:31;256.30;2252.80
16491;DHT22;8356;51.214;3.270;2023-12-20T08:44:57;256.40;2252.80
16491;DHT22;8356;51.214;3.270;2023-12-20T08:47:24;256.40;2252.80
16491;DHT22;8356;51.214;3.270;2023-12-20T08:49:50;256.40;2252.80
16491;DHT22;8356;51.214;3.270;2023-12-20T08:52:16;256.50;2252.80
16491;DHT22;8356;51.214;3.270;2023-12-20T08:54:41;256.50;2252.80
16491;DHT22;8356;51.214;3.270;2023-12-20T08:57:07;256.50;2252.80
16491;DHT22;8356;51.214;3.270;2023-12-20T08:59:33;256.50;2252.80
16491;DHT22;8356;51.214;3.270;2023-12-20T09:01:59;256.60;2252.80
16491;DHT22;8356;51.214;3.270;2023-12-20T09:04:25;256.70;2252.80
16491;DHT22;8356;51.214;3.270;2023-12-20T09:06:50;256.80;2252.80
16491;DHT22;8356;51.214;3.270;2023-12-20T09:09:16;256.80;2252.80
16491;DHT22;8356;51.214;3.270;2023-12-20T09:11:42;256.90;2252.80
16491;DHT22;8356;51.214;3.270;2023-12-20T09:14:08;281.60;2278.40
16491;DHT22;8356;51.214;3.270;2023-12-20T09:16:35;281.60;2278.40
16491;DHT22;8356;51.214;3.270;2023-12-20T09:19:00;281.70;2278.40
16491;DHT22;8356;51.214;3.270;2023-12-20T09:21:26;281.70;2278.40
16491;DHT22;8356;51.214;3.270;2023-12-20T09:23:52;256.90;2252.80
16491;DHT22;8356;51.214;3.270;2023-12-20T09:26:17;282.40;2278.40
16491;DHT22;8356;51.214;3.270;2023-12-20T09:28:44;281.60;2278.40
16491;DHT22;8356;51.214;3.270;2023-12-20T09:31:10;281.60;2278.40
16491;DHT22;8356;51.214;3.270;2023-12-20T09:33:36;256.90;2252.80
16491;DHT22;8356;51.214;3.270;2023-12-20T09:36:02;256.80;2252.80
16491;DHT22;8356;51.214;3.270;2023-12-20T09:38:27;256.80;2252.80
16491;DHT22;8356;51.214;3.270;2023-12-20T09:40:54;256.80;2252.80
16491;DHT22;8356;51.214;3.270;2023-12-20T09:43:20;256.80;2252.80
16491;DHT22;8356;51.214;3.270;2023-12-20T09:45:52;256.80;2252.80
16491;DHT22;8356;51.214;3.270;2023-12-20T09:48:18;256.80;2252.80
16491;DHT22;8356;51.214;3.270;2023-12-20T09:50:45;256.70;2252.80
16491;DHT22;8356;51.214;3.270;2023-12-20T09:53:15;256.80;2252.80
16491;DHT22;8356;51.214;3.270;2023-12-20T09:55:41;231.20;2252.80
16491;DHT22;8356;51.214;3.270;2023-12-20T09:58:07;256.80;2252.80
16491;DHT22;8356;51.214;3.270;2023-12-20T10:00:35;256.80;2252.80
16491;DHT22;8356;51.214;3.270;2023-12-20T10:03:01;256.80;2252.80
16491;DHT22;8356;51.214;3.270;2023-12-20T10:05:31;256.90;2252.80
16491;DHT22;8356;51.214;3.270;2023-12-20T10:07:58;281.60;2278.40
16491;DHT22;8356;51.214;3.270;2023-12-20T10:10:25;281.60;2278.40
16491;DHT22;8356;51.214;3.270;2023-12-20T10:13:06;281.80;2278.40
16491;DHT22;8356;51.214;3.270;2023-12-20T10:15:35;281.70;2278.40
16491;DHT22;8356;51.214;3.270;2023-12-20T10:18:02;281.80;2278.40
16491;DHT22;8356;51.214;3.270;2023-12-20T10:20:28;281.80;2278.40
16491;DHT22;8356;51.214;3.270;2023-12-20T10:22:58;281.80;2278.40
16491;DHT22;8356;51.214;3.270;2023-12-20T10:25:24;282.00;2278.40
16491;DHT22;8356;51.214;3.270;2023-12-20T10:28:11;282.00;2278.40
16491;DHT22;8356;51.214;3.270;2023-12-20T10:30:38;281.90;2278.40
16491;DHT22;8356;51.214;3.270;2023-12-20T10:33:06;281.90;2278.40
16491;DHT22;8356;51.214;3.270;2023-12-20T10:35:33;281.90;2278.40
16491;DHT22;8356;51.214;3.270;2023-12-20T10:38:03;281.80;2278.40
16491;DHT22;8356;51.214;3.270;2023-12-20T10:40:29;281.90;2278.40
16491;DHT22;8356;51.214;3.270;2023-12-20T10:42:56;282.00;2278.40
16491;DHT22;8356;51.214;3.270;2023-12-20T10:45:22;282.00;2278.40
16491;DHT22;8356;51.214;3.270;2023-12-20T10:47:49;282.00;2278.40
16491;DHT22;8356;51.214;3.270;2023-12-20T10:50:17;282.10;2278.40
16491;DHT22;8356;51.214;3.270;2023-12-20T10:52:44;282.00;2278.40
16491;DHT22;8356;51.214;3.270;2023-12-20T10:55:11;282.00;2278.40
16491;DHT22;8356;51.214;3.270;2023-12-20T10:57:37;282.10;2278.40
16491;DHT22;8356;51.214;3.270;2023-12-20T11:00:03;282.10;2278.40
16491;DHT22;8356;51.214;3.270;2023-12-20T11:02:36;282.20;2278.40
16491;DHT22;8356;51.214;3.270;2023-12-20T11:05:29;282.20;2278.40
16491;DHT22;8356;51.214;3.270;2023-12-20T11:08:30;282.30;2278.40
16491;DHT22;8356;51.214;3.270;2023-12-20T11:11:11;282.40;2278.40
16491;DHT22;8356;51.214;3.270;2023-12-20T11:13:53;282.40;2278.40
16491;DHT22;8356;51.214;3.270;2023-12-20T11:16:19;282.40;2278.40
16491;DHT22;8356;51.214;3.270;2023-12-20T11:18:45;282.40;2278.40
16491;DHT22;8356;51.214;3.270;2023-12-20T11:21:11;282.40;2278.40
16491;DHT22;8356;51.214;3.270;2023-12-20T11:23:37;282.50;2278.40
16491;DHT22;8356;51.214;3.270;2023-12-20T11:26:03;282.50;2278.40
16491;DHT22;8356;51.214;3.270;2023-12-20T11:28:29;282.50;2278.40
16491;DHT22;8356;51.214;3.270;2023-12-20T11:30:58;282.30;2278.40
16491;DHT22;8356;51.214;3.270;2023-12-20T11:33:30;282.40;2278.40
16491;DHT22;8356;51.214;3.270;2023-12-20T11:35:57;282.50;2278.40
16491;DHT22;8356;51.214;3.270;2023-12-20T11:38:25;282.40;2278.40
16491;DHT22;8356;51.214;3.270;2023-12-20T11:40:51;282.40;2278.40
16491;DHT22;8356;51.214;3.270;2023-12-20T11:43:39;282.40;2278.40
16491;DHT22;8356;51.214;3.270;2023-12-20T11:46:08;282.50;2278.40
16491;DHT22;8356;51.214;3.270;2023-12-20T11:48:36;282.50;2278.40
16491;DHT22;8356;51.214;3.270;2023-12-20T11:51:02;282.50;2278.40
16491;DHT22;8356;51.214;3.270;2023-12-20T11:53:34;307.20;2304.00
16491;DHT22;8356;51.214;3.270;2023-12-20T11:56:00;307.20;2304.00
16491;DHT22;8356;51.214;3.270;2023-12-20T11:58:28;307.30;2304.00
16491;DHT22;8356;51.214;3.270;2023-12-20T12:00:55;307.30;2304.00
16491;DHT22;8356;51.214;3.270;2023-12-20T12:03:21;282.30;2278.40
16491;DHT22;8356;51.214;3.270;2023-12-20T12:05:50;307.40;2304.00
16491;DHT22;8356;51.214;3.270;2023-12-20T12:08:16;307.30;2304.00
16491;DHT22;8356;51.214;3.270;2023-12-20T12:10:43;307.40;2304.00
16491;DHT22;8356;51.214;3.270;2023-12-20T12:13:09;307.40;2304.00
16491;DHT22;8356;51.214;3.270;2023-12-20T12:15:36;307.40;2304.00
16491;DHT22;8356;51.214;3.270;2023-12-20T12:18:02;307.30;2304.00
16491;DHT22;8356;51.214;3.270;2023-12-20T12:20:28;307.30;2304.00
16491;DHT22;8356;51.214;3.270;2023-12-20T12:23:04;307.30;2304.00
16491;DHT22;8356;51.214;3.270;2023-12-20T12:25:31;307.40;2304.00
16491;DHT22;8356;51.214;3.270;2023-12-20T12:28:01;307.40;2304.00
16491;DHT22;8356;51.214;3.270;2023-12-20T12:30:27;307.40;2304.00
16491;DHT22;8356;51.214;3.270;2023-12-20T12:32:53;307.60;2304.00
16491;DHT22;8356;51.214;3.270;2023-12-20T12:35:19;307.60;2304.00
16491;DHT22;8356;51.214;3.270;2023-12-20T12:37:45;307.70;2304.00
16491;DHT22;8356;51.214;3.270;2023-12-20T12:42:38;307.60;2304.00
16491;DHT22;8356;51.214;3.270;2023-12-20T12:45:05;307.60;2304.00
16491;DHT22;8356;51.214;3.270;2023-12-20T12:47:31;307.60;2304.00
16491;DHT22;8356;51.214;3.270;2023-12-20T12:49:57;307.60;2304.00
16491;DHT22;8356;51.214;3.270;2023-12-20T12:52:22;307.60;2304.00
16491;DHT22;8356;51.214;3.270;2023-12-20T12:54:49;307.60;2304.00
16491;DHT22;8356;51.214;3.270;2023-12-20T12:57:15;307.70;2304.00
16491;DHT22;8356;51.214;3.270;2023-12-20T12:59:44;307.60;2304.00
16491;DHT22;8356;51.214;3.270;2023-12-20T13:02:12;307.70;2304.00
16491;DHT22;8356;51.214;3.270;2023-12-20T13:04:39;307.70;2304.00
16491;DHT22;8356;51.214;3.270;2023-12-20T13:07:05;332.80;2329.60
16491;DHT22;8356;51.214;3.270;2023-12-20T13:09:31;307.70;2304.00
16491;DHT22;8356;51.214;3.270;2023-12-20T13:11:57;307.70;2304.00
16491;DHT22;8356;51.214;3.270;2023-12-20T13:14:22;307.70;2304.00
16491;DHT22;8356;51.214;3.270;2023-12-20T13:16:48;307.70;2304.00
16491;DHT22;8356;51.214;3.270;2023-12-20T13:19:14;307.70;2304.00
16491;DHT22;8356;51.214;3.270;2023-12-20T13:21:40;307.70;2304.00
16491;DHT22;8356;51.214;3.270;2023-12-20T13:24:05;307.70;2304.00
16491;DHT22;8356;51.214;3.270;2023-12-20T13:26:31;307.70;2304.00
16491;DHT22;8356;51.214;3.270;2023-12-20T13:28:58;307.70;2304.00
16491;DHT22;8356;51.214;3.270;2023-12-20T13:31:23;307.70;2304.00
16491;DHT22;8356;51.214;3.270;2023-12-20T13:33:49;307.70;2304.00
16491;DHT22;8356;51.214;3.270;2023-12-20T13:36:15;307.70;2304.00
16491;DHT22;8356;51.214;3.270;2023-12-20T13:38:41;307.70;2304.00
16491;DHT22;8356;51.214;3.270;2023-12-20T13:41:06;307.70;2304.00
16491;DHT22;8356;51.214;3.270;2023-12-20T13:43:32;307.70;2304.00
16491;DHT22;8356;51.214;3.270;2023-12-20T13:45:59;307.80;2304.00
16491;DHT22;8356;51.214;3.270;2023-12-20T13:48:25;307.80;2304.00
16491;DHT22;8356;51.214;3.270;2023-12-20T13:50:51;307.70;2304.00
16491;DHT22;8356;51.214;3.270;2023-12-20T13:53:16;307.70;2304.00
16491;DHT22;8356;51.214;3.270;2023-12-20T13:55:42;307.70;2304.00
16491;DHT22;8356;51.214;3.270;2023-12-20T13:58:08;307.70;2304.00
16491;DHT22;8356;51.214;3.270;2023-12-20T14:00:35;307.80;2304.00
16491;DHT22;8356;51.214;3.270;2023-12-20T14:03:03;307.80;2304.00
16491;DHT22;8356;51.214;3.270;2023-12-20T14:05:29;307.80;2304.00
16491;DHT22;8356;51.214;3.270;2023-12-20T14:07:55;307.70;2304.00
16491;DHT22;8356;51.214;3.270;2023-12-20T14:10:23;307.80;2304.00
16491;DHT22;8356;51.214;3.270;2023-12-20T14:12:50;307.80;2304.00
16491;DHT22;8356;51.214;3.270;2023-12-20T14:15:16;307.80;2304.00
16491;DHT22;8356;51.214;3.270;2023-12-20T14:17:42;307.80;2304.00
16491;DHT22;8356;51.214;3.270;2023-12-20T14:20:08;307.70;2304.00
16491;DHT22;8356;51.214;3.270;2023-12-20T14:22:35;307.70;2304.00
16491;DHT22;8356;51.214;3.270;2023-12-20T14:25:01;307.70;2304.00
16491;DHT22;8356;51.214;3.270;2023-12-20T14:27:27;333.00;2329.60
16491;DHT22;8356;51.214;3.270;2023-12-20T14:29:55;307.70;2304.00
16491;DHT22;8356;51.214;3.270;2023-12-20T14:32:21;307.60;2304.00
16491;DHT22;8356;51.214;3.270;2023-12-20T14:34:47;307.60;2304.00
16491;DHT22;8356;51.214;3.270;2023-12-20T14:37:12;307.60;2304.00
16491;DHT22;8356;51.214;3.270;2023-12-20T14:39:38;307.60;2304.00
16491;DHT22;8356;51.214;3.270;2023-12-20T14:42:07;307.60;2304.00
16491;DHT22;8356;51.214;3.270;2023-12-20T14:44:37;333.10;2329.60
16491;DHT22;8356;51.214;3.270;2023-12-20T14:47:03;307.60;2304.00
16491;DHT22;8356;51.214;3.270;2023-12-20T14:49:30;307.60;2304.00
16491;DHT22;8356;51.214;3.270;2023-12-20T14:51:55;307.50;2304.00
16491;DHT22;8356;51.214;3.270;2023-12-20T14:54:21;307.50;2304.00
16491;DHT22;8356;51.214;3.270;2023-12-20T14:56:47;307.50;2304.00
16491;DHT22;8356;51.214;3.270;2023-12-20T14:59:13;307.50;2304.00
16491;DHT22;8356;51.214;3.270;2023-12-20T15:01:38;307.40;2304.00